sensor_id;sensor_type;location;lat;lon;timestamp;P1;durP1;ratioP1;P2;durP2;ratioP2
59099;SDS011;44884;52.730;6.964;2022-07-09T00:00:33;2.10;;;1.90;;
59099;SDS011;44884;52.730;6.964;2022-07-09T00:02:59;2.58;;;2.15;;
59099;SDS011;44884;52.730;6.964;2022-07-09T00:05:25;4.68;;;2.15;;
59099;SDS011;44884;52.730;6.964;2022-07-09T00:07:51;4.32;;;2.83;;
59099;SDS011;44884;52.730;6.964;2022-07-09T00:10:17;2.25;;;2.03;;
59099;SDS011;44884;52.730;6.964;2022-07-09T00:12:43;3.13;;;2.17;;
59099;SDS011;44884;52.730;6.964;2022-07-09T00:15:09;2.58;;;2.38;;
59099;SDS011;44884;52.730;6.964;2022-07-09T00:17:35;3.17;;;2.63;;
59099;SDS011;44884;52.730;6.964;2022-07-09T00:20:02;2.55;;;2.10;;
59099;SDS011;44884;52.730;6.964;2022-07-09T00:22:30;2.75;;;2.13;;
59099;SDS011;44884;52.730;6.964;2022-07-09T00:24:56;3.40;;;2.03;;
59099;SDS011;44884;52.730;6.964;2022-07-09T00:27:22;2.30;;;1.92;;
59099;SDS011;44884;52.730;6.964;2022-07-09T00:29:48;1.95;;;1.73;;
59099;SDS011;44884;52.730;6.964;2022-07-09T00:32:14;3.47;;;2.55;;
59099;SDS011;44884;52.730;6.964;2022-07-09T00:34:41;2.45;;;1.90;;
59099;SDS011;44884;52.730;6.964;2022-07-09T00:37:07;2.75;;;2.25;;
59099;SDS011;44884;52.730;6.964;2022-07-09T00:39:33;5.63;;;2.33;;
59099;SDS011;44884;52.730;6.964;2022-07-09T00:42:06;2.28;;;2.08;;
59099;SDS011;44884;52.730;6.964;2022-07-09T00:44:32;3.08;;;1.73;;
59099;SDS011;44884;52.730;6.964;2022-07-09T00:46:58;2.28;;;2.08;;
59099;SDS011;44884;52.730;6.964;2022-07-09T00:49:25;1.83;;;1.73;;
59099;SDS011;44884;52.730;6.964;2022-07-09T00:51:52;2.70;;;1.77;;
59099;SDS011;44884;52.730;6.964;2022-07-09T00:54:19;1.83;;;1.67;;
59099;SDS011;44884;52.730;6.964;2022-07-09T00:56:45;3.17;;;1.80;;
59099;SDS011;44884;52.730;6.964;2022-07-09T00:59:11;3.05;;;2.10;;
59099;SDS011;44884;52.730;6.964;2022-07-09T01:01:38;2.58;;;2.05;;
59099;SDS011;44884;52.730;6.964;2022-07-09T01:04:05;2.47;;;2.28;;
59099;SDS011;44884;52.730;6.964;2022-07-09T01:06:32;3.33;;;2.38;;
59099;SDS011;44884;52.730;6.964;2022-07-09T01:09:00;3.28;;;1.92;;
59099;SDS011;44884;52.730;6.964;2022-07-09T01:11:26;2.35;;;1.88;;
59099;SDS011;44884;52.730;6.964;2022-07-09T01:13:52;2.05;;;1.85;;
59099;SDS011;44884;52.730;6.964;2022-07-09T01:16:18;2.28;;;2.08;;
59099;SDS011;44884;52.730;6.964;2022-07-09T01:18:48;3.00;;;2.55;;
59099;SDS011;44884;52.730;6.964;2022-07-09T01:21:14;2.22;;;1.98;;
59099;SDS011;44884;52.730;6.964;2022-07-09T01:23:41;4.35;;;2.75;;
59099;SDS011;44884;52.730;6.964;2022-07-09T01:26:07;2.75;;;1.95;;
59099;SDS011;44884;52.730;6.964;2022-07-09T01:28:33;2.20;;;2.00;;
59099;SDS011;44884;52.730;6.964;2022-07-09T01:30:59;2.42;;;2.10;;
59099;SDS011;44884;52.730;6.964;2022-07-09T01:33:26;3.38;;;2.30;;
59099;SDS011;44884;52.730;6.964;2022-07-09T01:35:52;1.95;;;1.85;;
59099;SDS011;44884;52.730;6.964;2022-07-09T01:38:18;2.33;;;2.13;;
59099;SDS011;44884;52.730;6.964;2022-07-09T01:40:44;3.35;;;1.90;;
59099;SDS011;44884;52.730;6.964;2022-07-09T01:43:10;2.20;;;2.00;;
59099;SDS011;44884;52.730;6.964;2022-07-09T01:45:38;2.40;;;2.20;;
59099;SDS011;44884;52.730;6.964;2022-07-09T01:48:04;3.03;;;1.85;;
59099;SDS011;44884;52.730;6.964;2022-07-09T01:50:30;2.40;;;2.17;;
59099;SDS011;44884;52.730;6.964;2022-07-09T01:52:56;9.13;;;2.20;;
59099;SDS011;44884;52.730;6.964;2022-07-09T01:55:22;1.95;;;1.73;;
59099;SDS011;44884;52.730;6.964;2022-07-09T01:57:48;2.42;;;1.83;;
59099;SDS011;44884;52.730;6.964;2022-07-09T02:00:14;2.53;;;2.03;;
59099;SDS011;44884;52.730;6.964;2022-07-09T02:02:40;2.15;;;1.95;;
59099;SDS011;44884;52.730;6.964;2022-07-09T02:05:06;2.30;;;1.75;;
59099;SDS011;44884;52.730;6.964;2022-07-09T02:07:32;3.53;;;1.95;;
59099;SDS011;44884;52.730;6.964;2022-07-09T02:09:58;2.55;;;1.83;;
59099;SDS011;44884;52.730;6.964;2022-07-09T02:12:25;1.85;;;1.67;;
59099;SDS011;44884;52.730;6.964;2022-07-09T02:14:51;2.42;;;2.22;;
59099;SDS011;44884;52.730;6.964;2022-07-09T02:17:17;2.85;;;2.03;;
59099;SDS011;44884;52.730;6.964;2022-07-09T02:19:43;3.13;;;2.05;;
59099;SDS011;44884;52.730;6.964;2022-07-09T02:22:10;3.67;;;2.10;;
59099;SDS011;44884;52.730;6.964;2022-07-09T02:24:36;7.82;;;2.40;;
59099;SDS011;44884;52.730;6.964;2022-07-09T02:27:02;2.65;;;2.45;;
59099;SDS011;44884;52.730;6.964;2022-07-09T02:29:28;3.13;;;2.10;;
59099;SDS011;44884;52.730;6.964;2022-07-09T02:31:54;4.13;;;2.30;;
59099;SDS011;44884;52.730;6.964;2022-07-09T02:34:20;3.00;;;2.22;;
59099;SDS011;44884;52.730;6.964;2022-07-09T02:36:47;3.55;;;2.05;;
59099;SDS011;44884;52.730;6.964;2022-07-09T02:39:13;3.45;;;2.22;;
59099;SDS011;44884;52.730;6.964;2022-07-09T02:41:39;2.30;;;2.10;;
59099;SDS011;44884;52.730;6.964;2022-07-09T02:44:05;3.22;;;2.10;;
59099;SDS011;44884;52.730;6.964;2022-07-09T02:46:31;2.10;;;1.67;;
59099;SDS011;44884;52.730;6.964;2022-07-09T02:48:57;3.40;;;2.47;;
59099;SDS011;44884;52.730;6.964;2022-07-09T02:51:23;2.72;;;2.53;;
59099;SDS011;44884;52.730;6.964;2022-07-09T02:53:49;2.65;;;1.83;;
59099;SDS011;44884;52.730;6.964;2022-07-09T02:56:15;3.22;;;2.30;;
59099;SDS011;44884;52.730;6.964;2022-07-09T02:58:41;2.50;;;1.90;;
59099;SDS011;44884;52.730;6.964;2022-07-09T03:01:07;3.25;;;2.10;;
59099;SDS011;44884;52.730;6.964;2022-07-09T03:03:33;4.25;;;3.13;;
59099;SDS011;44884;52.730;6.964;2022-07-09T03:06:03;2.53;;;2.03;;
59099;SDS011;44884;52.730;6.964;2022-07-09T03:08:29;2.38;;;2.00;;
59099;SDS011;44884;52.730;6.964;2022-07-09T03:10:55;3.08;;;2.28;;
59099;SDS011;44884;52.730;6.964;2022-07-09T03:13:21;3.20;;;2.25;;
59099;SDS011;44884;52.730;6.964;2022-07-09T03:15:47;5.07;;;2.65;;
59099;SDS011;44884;52.730;6.964;2022-07-09T03:18:14;2.10;;;1.95;;
59099;SDS011;44884;52.730;6.964;2022-07-09T03:20:40;3.03;;;2.13;;
59099;SDS011;44884;52.730;6.964;2022-07-09T03:23:06;2.35;;;2.15;;
59099;SDS011;44884;52.730;6.964;2022-07-09T03:25:32;1.83;;;1.70;;
59099;SDS011;44884;52.730;6.964;2022-07-09T03:27:58;2.35;;;2.15;;
59099;SDS011;44884;52.730;6.964;2022-07-09T03:30:25;4.40;;;2.47;;
59099;SDS011;44884;52.730;6.964;2022-07-09T03:32:51;2.55;;;2.00;;
59099;SDS011;44884;52.730;6.964;2022-07-09T03:35:17;2.38;;;2.17;;
59099;SDS011;44884;52.730;6.964;2022-07-09T03:37:43;3.20;;;2.38;;
59099;SDS011;44884;52.730;6.964;2022-07-09T03:40:09;4.22;;;2.22;;
59099;SDS011;44884;52.730;6.964;2022-07-09T03:42:35;3.55;;;2.33;;
59099;SDS011;44884;52.730;6.964;2022-07-09T03:45:01;2.55;;;2.10;;
59099;SDS011;44884;52.730;6.964;2022-07-09T03:47:27;2.50;;;2.30;;
59099;SDS011;44884;52.730;6.964;2022-07-09T03:49:53;2.55;;;2.10;;
59099;SDS011;44884;52.730;6.964;2022-07-09T03:52:19;1.80;;;1.70;;
59099;SDS011;44884;52.730;6.964;2022-07-09T03:54:45;2.28;;;2.08;;
59099;SDS011;44884;52.730;6.964;2022-07-09T03:57:11;3.38;;;2.60;;
59099;SDS011;44884;52.730;6.964;2022-07-09T03:59:37;2.17;;;2.00;;
59099;SDS011;44884;52.730;6.964;2022-07-09T04:02:03;3.35;;;2.03;;
59099;SDS011;44884;52.730;6.964;2022-07-09T04:04:30;3.08;;;2.03;;
59099;SDS011;44884;52.730;6.964;2022-07-09T04:06:56;2.20;;;1.98;;
59099;SDS011;44884;52.730;6.964;2022-07-09T04:09:22;8.35;;;2.65;;
59099;SDS011;44884;52.730;6.964;2022-07-09T04:11:48;2.70;;;2.25;;
59099;SDS011;44884;52.730;6.964;2022-07-09T04:14:14;4.15;;;2.15;;
59099;SDS011;44884;52.730;6.964;2022-07-09T04:16:41;2.95;;;2.00;;
59099;SDS011;44884;52.730;6.964;2022-07-09T04:19:07;2.88;;;1.92;;
59099;SDS011;44884;52.730;6.964;2022-07-09T04:21:33;2.22;;;2.03;;
59099;SDS011;44884;52.730;6.964;2022-07-09T04:23:59;2.25;;;2.03;;
59099;SDS011;44884;52.730;6.964;2022-07-09T04:26:25;2.60;;;2.40;;
59099;SDS011;44884;52.730;6.964;2022-07-09T04:28:51;2.13;;;1.85;;
59099;SDS011;44884;52.730;6.964;2022-07-09T04:31:17;2.58;;;2.38;;
59099;SDS011;44884;52.730;6.964;2022-07-09T04:33:44;3.25;;;1.95;;
59099;SDS011;44884;52.730;6.964;2022-07-09T04:36:10;2.00;;;1.80;;
59099;SDS011;44884;52.730;6.964;2022-07-09T04:38:36;2.17;;;1.80;;
59099;SDS011;44884;52.730;6.964;2022-07-09T04:41:02;4.18;;;2.20;;
59099;SDS011;44884;52.730;6.964;2022-07-09T04:43:28;2.50;;;1.90;;
59099;SDS011;44884;52.730;6.964;2022-07-09T04:45:54;2.50;;;2.30;;
59099;SDS011;44884;52.730;6.964;2022-07-09T04:48:20;4.25;;;2.38;;
59099;SDS011;44884;52.730;6.964;2022-07-09T04:50:46;2.10;;;1.90;;
59099;SDS011;44884;52.730;6.964;2022-07-09T04:53:13;2.17;;;1.98;;
59099;SDS011;44884;52.730;6.964;2022-07-09T04:55:39;2.03;;;1.92;;
59099;SDS011;44884;52.730;6.964;2022-07-09T04:58:05;2.08;;;1.88;;
59099;SDS011;44884;52.730;6.964;2022-07-09T05:00:31;2.60;;;1.98;;
59099;SDS011;44884;52.730;6.964;2022-07-09T05:02:58;2.58;;;2.15;;
59099;SDS011;44884;52.730;6.964;2022-07-09T05:05:24;2.42;;;2.03;;
59099;SDS011;44884;52.730;6.964;2022-07-09T05:07:51;3.22;;;2.35;;
59099;SDS011;44884;52.730;6.964;2022-07-09T05:10:17;5.47;;;2.47;;
59099;SDS011;44884;52.730;6.964;2022-07-09T05:12:44;2.25;;;2.10;;
59099;SDS011;44884;52.730;6.964;2022-07-09T05:15:10;2.20;;;2.00;;
59099;SDS011;44884;52.730;6.964;2022-07-09T05:17:37;2.50;;;2.30;;
59099;SDS011;44884;52.730;6.964;2022-07-09T05:20:04;2.42;;;2.22;;
59099;SDS011;44884;52.730;6.964;2022-07-09T05:22:31;2.30;;;2.10;;
59099;SDS011;44884;52.730;6.964;2022-07-09T05:24:57;2.65;;;2.08;;
59099;SDS011;44884;52.730;6.964;2022-07-09T05:27:23;1.95;;;1.63;;
59099;SDS011;44884;52.730;6.964;2022-07-09T05:29:49;2.28;;;2.08;;
59099;SDS011;44884;52.730;6.964;2022-07-09T05:32:15;2.85;;;2.00;;
59099;SDS011;44884;52.730;6.964;2022-07-09T05:34:41;3.97;;;2.33;;
59099;SDS011;44884;52.730;6.964;2022-07-09T05:37:08;2.45;;;2.25;;
59099;SDS011;44884;52.730;6.964;2022-07-09T05:39:34;2.55;;;1.98;;
59099;SDS011;44884;52.730;6.964;2022-07-09T05:42:00;2.38;;;2.17;;
59099;SDS011;44884;52.730;6.964;2022-07-09T05:44:26;2.40;;;2.17;;
59099;SDS011;44884;52.730;6.964;2022-07-09T05:46:52;2.15;;;1.77;;
59099;SDS011;44884;52.730;6.964;2022-07-09T05:49:18;3.78;;;2.08;;
59099;SDS011;44884;52.730;6.964;2022-07-09T05:51:44;2.42;;;2.17;;
59099;SDS011;44884;52.730;6.964;2022-07-09T05:54:10;1.77;;;1.67;;
59099;SDS011;44884;52.730;6.964;2022-07-09T05:56:36;2.63;;;2.42;;
59099;SDS011;44884;52.730;6.964;2022-07-09T05:59:03;2.08;;;1.88;;
59099;SDS011;44884;52.730;6.964;2022-07-09T06:01:29;3.22;;;2.40;;
59099;SDS011;44884;52.730;6.964;2022-07-09T06:03:56;2.45;;;2.25;;
59099;SDS011;44884;52.730;6.964;2022-07-09T06:06:22;2.95;;;2.20;;
59099;SDS011;44884;52.730;6.964;2022-07-09T06:08:48;3.75;;;2.25;;
59099;SDS011;44884;52.730;6.964;2022-07-09T06:11:14;3.03;;;2.30;;
59099;SDS011;44884;52.730;6.964;2022-07-09T06:13:40;2.28;;;1.80;;
59099;SDS011;44884;52.730;6.964;2022-07-09T06:16:06;2.58;;;2.22;;
59099;SDS011;44884;52.730;6.964;2022-07-09T06:18:32;2.80;;;2.33;;
59099;SDS011;44884;52.730;6.964;2022-07-09T06:20:58;2.83;;;2.30;;
59099;SDS011;44884;52.730;6.964;2022-07-09T06:23:26;1.88;;;1.70;;
59099;SDS011;44884;52.730;6.964;2022-07-09T06:25:52;3.28;;;2.05;;
59099;SDS011;44884;52.730;6.964;2022-07-09T06:28:18;1.88;;;1.75;;
59099;SDS011;44884;52.730;6.964;2022-07-09T06:30:44;2.22;;;2.03;;
59099;SDS011;44884;52.730;6.964;2022-07-09T06:33:10;2.10;;;1.63;;
59099;SDS011;44884;52.730;6.964;2022-07-09T06:35:36;2.10;;;1.90;;
59099;SDS011;44884;52.730;6.964;2022-07-09T06:38:02;1.95;;;1.75;;
59099;SDS011;44884;52.730;6.964;2022-07-09T06:40:29;4.68;;;2.00;;
59099;SDS011;44884;52.730;6.964;2022-07-09T06:42:55;2.22;;;1.80;;
59099;SDS011;44884;52.730;6.964;2022-07-09T06:45:21;4.32;;;2.35;;
59099;SDS011;44884;52.730;6.964;2022-07-09T06:47:47;2.22;;;1.83;;
59099;SDS011;44884;52.730;6.964;2022-07-09T06:50:13;2.47;;;2.10;;
59099;SDS011;44884;52.730;6.964;2022-07-09T06:52:40;2.95;;;2.13;;
59099;SDS011;44884;52.730;6.964;2022-07-09T06:55:06;3.65;;;2.35;;
59099;SDS011;44884;52.730;6.964;2022-07-09T06:57:32;2.95;;;2.05;;
59099;SDS011;44884;52.730;6.964;2022-07-09T06:59:58;2.10;;;1.85;;
59099;SDS011;44884;52.730;6.964;2022-07-09T07:02:24;5.32;;;2.08;;
59099;SDS011;44884;52.730;6.964;2022-07-09T07:04:50;1.80;;;1.70;;
59099;SDS011;44884;52.730;6.964;2022-07-09T07:07:16;2.35;;;1.65;;
59099;SDS011;44884;52.730;6.964;2022-07-09T07:09:42;2.53;;;1.70;;
59099;SDS011;44884;52.730;6.964;2022-07-09T07:12:08;2.00;;;1.50;;
59099;SDS011;44884;52.730;6.964;2022-07-09T07:14:34;1.95;;;1.80;;
59099;SDS011;44884;52.730;6.964;2022-07-09T07:17:00;1.92;;;1.83;;
59099;SDS011;44884;52.730;6.964;2022-07-09T07:19:26;4.82;;;2.15;;
59099;SDS011;44884;52.730;6.964;2022-07-09T07:21:53;2.03;;;1.92;;
59099;SDS011;44884;52.730;6.964;2022-07-09T07:24:19;3.05;;;1.90;;
59099;SDS011;44884;52.730;6.964;2022-07-09T07:26:45;2.00;;;1.88;;
59099;SDS011;44884;52.730;6.964;2022-07-09T07:29:11;1.80;;;1.70;;
59099;SDS011;44884;52.730;6.964;2022-07-09T07:31:37;2.00;;;1.80;;
59099;SDS011;44884;52.730;6.964;2022-07-09T07:34:03;1.83;;;1.67;;
59099;SDS011;44884;52.730;6.964;2022-07-09T07:36:29;1.98;;;1.77;;
59099;SDS011;44884;52.730;6.964;2022-07-09T07:38:56;2.25;;;2.05;;
59099;SDS011;44884;52.730;6.964;2022-07-09T07:41:22;1.80;;;1.70;;
59099;SDS011;44884;52.730;6.964;2022-07-09T07:43:48;1.80;;;1.70;;
59099;SDS011;44884;52.730;6.964;2022-07-09T07:46:14;2.38;;;1.88;;
59099;SDS011;44884;52.730;6.964;2022-07-09T07:48:40;1.90;;;1.70;;
59099;SDS011;44884;52.730;6.964;2022-07-09T07:51:07;1.95;;;1.80;;
59099;SDS011;44884;52.730;6.964;2022-07-09T07:53:33;2.00;;;1.90;;
59099;SDS011;44884;52.730;6.964;2022-07-09T07:56:00;2.13;;;1.48;;
59099;SDS011;44884;52.730;6.964;2022-07-09T07:58:27;2.25;;;2.00;;
59099;SDS011;44884;52.730;6.964;2022-07-09T08:00:53;2.03;;;1.92;;
59099;SDS011;44884;52.730;6.964;2022-07-09T08:03:19;1.70;;;1.60;;
59099;SDS011;44884;52.730;6.964;2022-07-09T08:05:45;3.45;;;2.42;;
59099;SDS011;44884;52.730;6.964;2022-07-09T08:08:12;2.03;;;1.83;;
59099;SDS011;44884;52.730;6.964;2022-07-09T08:10:38;1.67;;;1.58;;
59099;SDS011;44884;52.730;6.964;2022-07-09T08:13:04;1.63;;;1.52;;
59099;SDS011;44884;52.730;6.964;2022-07-09T08:15:30;3.25;;;2.10;;
59099;SDS011;44884;52.730;6.964;2022-07-09T08:17:56;1.95;;;1.60;;
59099;SDS011;44884;52.730;6.964;2022-07-09T08:20:22;1.95;;;1.58;;
59099;SDS011;44884;52.730;6.964;2022-07-09T08:22:48;2.17;;;1.95;;
59099;SDS011;44884;52.730;6.964;2022-07-09T08:25:14;1.65;;;1.55;;
59099;SDS011;44884;52.730;6.964;2022-07-09T08:27:40;1.60;;;1.50;;
59099;SDS011;44884;52.730;6.964;2022-07-09T08:30:06;3.72;;;2.05;;
59099;SDS011;44884;52.730;6.964;2022-07-09T08:32:33;1.80;;;1.67;;
59099;SDS011;44884;52.730;6.964;2022-07-09T08:34:59;1.63;;;1.52;;
59099;SDS011;44884;52.730;6.964;2022-07-09T08:37:25;2.10;;;1.90;;
59099;SDS011;44884;52.730;6.964;2022-07-09T08:39:51;2.15;;;1.60;;
59099;SDS011;44884;52.730;6.964;2022-07-09T08:42:17;1.60;;;1.48;;
59099;SDS011;44884;52.730;6.964;2022-07-09T08:44:45;2.03;;;1.80;;
59099;SDS011;44884;52.730;6.964;2022-07-09T08:47:12;1.65;;;1.55;;
59099;SDS011;44884;52.730;6.964;2022-07-09T08:49:40;1.45;;;1.25;;
59099;SDS011;44884;52.730;6.964;2022-07-09T08:52:07;2.35;;;1.80;;
59099;SDS011;44884;52.730;6.964;2022-07-09T08:54:34;1.60;;;1.48;;
59099;SDS011;44884;52.730;6.964;2022-07-09T08:57:04;1.60;;;1.50;;
59099;SDS011;44884;52.730;6.964;2022-07-09T08:59:31;2.20;;;1.85;;
59099;SDS011;44884;52.730;6.964;2022-07-09T09:01:57;6.82;;;1.63;;
59099;SDS011;44884;52.730;6.964;2022-07-09T09:04:23;1.90;;;1.80;;
59099;SDS011;44884;52.730;6.964;2022-07-09T09:06:49;1.70;;;1.55;;
59099;SDS011;44884;52.730;6.964;2022-07-09T09:09:19;2.65;;;2.20;;
59099;SDS011;44884;52.730;6.964;2022-07-09T09:11:49;1.60;;;1.50;;
59099;SDS011;44884;52.730;6.964;2022-07-09T09:14:21;1.80;;;1.70;;
59099;SDS011;44884;52.730;6.964;2022-07-09T09:16:47;2.08;;;1.67;;
59099;SDS011;44884;52.730;6.964;2022-07-09T09:19:13;1.88;;;1.67;;
59099;SDS011;44884;52.730;6.964;2022-07-09T09:21:40;2.03;;;1.83;;
59099;SDS011;44884;52.730;6.964;2022-07-09T09:24:06;2.00;;;1.80;;
59099;SDS011;44884;52.730;6.964;2022-07-09T09:26:32;2.88;;;1.50;;
59099;SDS011;44884;52.730;6.964;2022-07-09T09:29:01;2.38;;;2.00;;
59099;SDS011;44884;52.730;6.964;2022-07-09T09:31:32;2.97;;;2.30;;
59099;SDS011;44884;52.730;6.964;2022-07-09T09:39:18;5.05;;;2.17;;
59099;SDS011;44884;52.730;6.964;2022-07-09T09:41:52;4.43;;;2.00;;
59099;SDS011;44884;52.730;6.964;2022-07-09T09:44:22;6.70;;;2.08;;
59099;SDS011;44884;52.730;6.964;2022-07-09T09:46:51;2.45;;;1.65;;
59099;SDS011;44884;52.730;6.964;2022-07-09T09:49:18;2.35;;;1.73;;
59099;SDS011;44884;52.730;6.964;2022-07-09T09:54:19;10.23;;;2.45;;
59099;SDS011;44884;52.730;6.964;2022-07-09T09:56:46;2.67;;;1.90;;
59099;SDS011;44884;52.730;6.964;2022-07-09T09:59:12;2.22;;;1.23;;
59099;SDS011;44884;52.730;6.964;2022-07-09T10:01:42;1.63;;;1.48;;
59099;SDS011;44884;52.730;6.964;2022-07-09T10:04:08;4.65;;;1.30;;
59099;SDS011;44884;52.730;6.964;2022-07-09T10:06:35;1.40;;;1.30;;
59099;SDS011;44884;52.730;6.964;2022-07-09T10:09:05;1.55;;;1.30;;
59099;SDS011;44884;52.730;6.964;2022-07-09T10:11:42;2.58;;;1.30;;
59099;SDS011;44884;52.730;6.964;2022-07-09T10:14:14;1.65;;;1.42;;
59099;SDS011;44884;52.730;6.964;2022-07-09T10:16:40;1.92;;;1.73;;
59099;SDS011;44884;52.730;6.964;2022-07-09T10:19:07;2.90;;;1.75;;
59099;SDS011;44884;52.730;6.964;2022-07-09T10:21:39;2.47;;;1.50;;
59099;SDS011;44884;52.730;6.964;2022-07-09T10:24:06;4.43;;;1.60;;
59099;SDS011;44884;52.730;6.964;2022-07-09T10:31:46;2.33;;;1.88;;
59099;SDS011;44884;52.730;6.964;2022-07-09T10:34:23;3.20;;;1.80;;
59099;SDS011;44884;52.730;6.964;2022-07-09T10:36:56;2.20;;;1.77;;
59099;SDS011;44884;52.730;6.964;2022-07-09T10:39:22;4.68;;;1.75;;
59099;SDS011;44884;52.730;6.964;2022-07-09T10:41:57;2.10;;;1.15;;
59099;SDS011;44884;52.730;6.964;2022-07-09T10:44:39;3.65;;;1.60;;
59099;SDS011;44884;52.730;6.964;2022-07-09T10:47:06;2.87;;;1.60;;
59099;SDS011;44884;52.730;6.964;2022-07-09T10:49:35;1.90;;;1.50;;
59099;SDS011;44884;52.730;6.964;2022-07-09T10:52:02;2.72;;;1.50;;
59099;SDS011;44884;52.730;6.964;2022-07-09T10:54:28;3.75;;;1.60;;
59099;SDS011;44884;52.730;6.964;2022-07-09T10:56:55;1.73;;;1.20;;
59099;SDS011;44884;52.730;6.964;2022-07-09T10:59:22;5.20;;;1.50;;
59099;SDS011;44884;52.730;6.964;2022-07-09T11:01:48;2.83;;;1.58;;
59099;SDS011;44884;52.730;6.964;2022-07-09T11:06:50;1.83;;;1.38;;
59099;SDS011;44884;52.730;6.964;2022-07-09T11:09:16;2.55;;;1.55;;
59099;SDS011;44884;52.730;6.964;2022-07-09T11:11:43;2.05;;;1.40;;
59099;SDS011;44884;52.730;6.964;2022-07-09T11:14:12;19.55;;;1.73;;
59099;SDS011;44884;52.730;6.964;2022-07-09T11:16:38;3.13;;;1.52;;
59099;SDS011;44884;52.730;6.964;2022-07-09T11:19:17;2.28;;;1.30;;
59099;SDS011;44884;52.730;6.964;2022-07-09T11:21:43;2.58;;;1.20;;
59099;SDS011;44884;52.730;6.964;2022-07-09T11:24:19;1.13;;;1.02;;
59099;SDS011;44884;52.730;6.964;2022-07-09T11:26:47;5.43;;;1.30;;
59099;SDS011;44884;52.730;6.964;2022-07-09T11:29:13;6.38;;;1.70;;
59099;SDS011;44884;52.730;6.964;2022-07-09T11:31:46;4.85;;;2.05;;
59099;SDS011;44884;52.730;6.964;2022-07-09T11:34:13;3.17;;;1.30;;
59099;SDS011;44884;52.730;6.964;2022-07-09T11:36:44;1.92;;;1.40;;
59099;SDS011;44884;52.730;6.964;2022-07-09T11:39:20;3.83;;;1.73;;
59099;SDS011;44884;52.730;6.964;2022-07-09T11:41:47;2.75;;;1.40;;
59099;SDS011;44884;52.730;6.964;2022-07-09T11:44:23;3.67;;;1.83;;
59099;SDS011;44884;52.730;6.964;2022-07-09T11:52:04;3.38;;;1.23;;
59099;SDS011;44884;52.730;6.964;2022-07-09T11:54:30;1.48;;;1.38;;
59099;SDS011;44884;52.730;6.964;2022-07-09T11:56:56;1.38;;;1.27;;
59099;SDS011;44884;52.730;6.964;2022-07-09T11:59:29;4.00;;;1.52;;
59099;SDS011;44884;52.730;6.964;2022-07-09T12:01:59;1.98;;;1.33;;
59099;SDS011;44884;52.730;6.964;2022-07-09T12:04:30;3.92;;;1.60;;
59099;SDS011;44884;52.730;6.964;2022-07-09T12:06:56;2.85;;;1.75;;
59099;SDS011;44884;52.730;6.964;2022-07-09T12:09:26;4.35;;;1.30;;
59099;SDS011;44884;52.730;6.964;2022-07-09T12:11:53;2.53;;;1.33;;
59099;SDS011;44884;52.730;6.964;2022-07-09T12:14:19;2.63;;;1.38;;
59099;SDS011;44884;52.730;6.964;2022-07-09T12:16:45;3.83;;;1.50;;
59099;SDS011;44884;52.730;6.964;2022-07-09T12:19:12;3.47;;;1.58;;
59099;SDS011;44884;52.730;6.964;2022-07-09T12:21:38;2.55;;;1.67;;
59099;SDS011;44884;52.730;6.964;2022-07-09T12:24:04;4.40;;;1.85;;
59099;SDS011;44884;52.730;6.964;2022-07-09T12:26:30;1.50;;;1.30;;
59099;SDS011;44884;52.730;6.964;2022-07-09T12:28:56;1.98;;;1.50;;
59099;SDS011;44884;52.730;6.964;2022-07-09T12:31:22;1.80;;;1.33;;
59099;SDS011;44884;52.730;6.964;2022-07-09T12:33:48;3.20;;;1.52;;
59099;SDS011;44884;52.730;6.964;2022-07-09T12:36:14;8.23;;;3.05;;
59099;SDS011;44884;52.730;6.964;2022-07-09T12:38:43;3.72;;;2.00;;
59099;SDS011;44884;52.730;6.964;2022-07-09T12:41:09;5.75;;;1.65;;
59099;SDS011;44884;52.730;6.964;2022-07-09T12:43:35;2.63;;;1.80;;
59099;SDS011;44884;52.730;6.964;2022-07-09T12:46:01;7.38;;;2.30;;
59099;SDS011;44884;52.730;6.964;2022-07-09T12:48:27;4.30;;;1.95;;
59099;SDS011;44884;52.730;6.964;2022-07-09T12:50:53;7.45;;;1.92;;
59099;SDS011;44884;52.730;6.964;2022-07-09T12:53:19;4.63;;;1.95;;
59099;SDS011;44884;52.730;6.964;2022-07-09T12:55:45;5.70;;;2.05;;
59099;SDS011;44884;52.730;6.964;2022-07-09T12:58:12;5.72;;;2.28;;
59099;SDS011;44884;52.730;6.964;2022-07-09T13:00:38;3.63;;;2.03;;
59099;SDS011;44884;52.730;6.964;2022-07-09T13:03:04;3.75;;;1.90;;
59099;SDS011;44884;52.730;6.964;2022-07-09T13:05:31;4.47;;;2.00;;
59099;SDS011;44884;52.730;6.964;2022-07-09T13:07:57;4.20;;;2.13;;
59099;SDS011;44884;52.730;6.964;2022-07-09T13:10:23;2.70;;;1.80;;
59099;SDS011;44884;52.730;6.964;2022-07-09T13:12:49;7.80;;;1.80;;
59099;SDS011;44884;52.730;6.964;2022-07-09T13:15:15;4.68;;;2.17;;
59099;SDS011;44884;52.730;6.964;2022-07-09T13:17:49;6.25;;;1.88;;
59099;SDS011;44884;52.730;6.964;2022-07-09T13:20:15;2.63;;;1.30;;
59099;SDS011;44884;52.730;6.964;2022-07-09T13:22:42;3.97;;;1.27;;
59099;SDS011;44884;52.730;6.964;2022-07-09T13:25:08;2.30;;;1.30;;
59099;SDS011;44884;52.730;6.964;2022-07-09T13:27:34;2.45;;;1.00;;
59099;SDS011;44884;52.730;6.964;2022-07-09T13:30:00;7.57;;;1.30;;
59099;SDS011;44884;52.730;6.964;2022-07-09T13:32:26;3.35;;;1.13;;
59099;SDS011;44884;52.730;6.964;2022-07-09T13:34:52;4.32;;;1.27;;
59099;SDS011;44884;52.730;6.964;2022-07-09T13:37:19;4.05;;;0.90;;
59099;SDS011;44884;52.730;6.964;2022-07-09T13:39:45;4.53;;;1.42;;
59099;SDS011;44884;52.730;6.964;2022-07-09T13:42:11;3.72;;;1.50;;
59099;SDS011;44884;52.730;6.964;2022-07-09T13:44:37;3.05;;;0.98;;
59099;SDS011;44884;52.730;6.964;2022-07-09T13:47:04;2.53;;;1.25;;
59099;SDS011;44884;52.730;6.964;2022-07-09T13:49:30;2.17;;;1.55;;
59099;SDS011;44884;52.730;6.964;2022-07-09T13:51:56;3.83;;;1.45;;
59099;SDS011;44884;52.730;6.964;2022-07-09T13:54:24;3.13;;;0.95;;
59099;SDS011;44884;52.730;6.964;2022-07-09T13:56:50;2.60;;;1.30;;
59099;SDS011;44884;52.730;6.964;2022-07-09T13:59:16;1.70;;;1.30;;
59099;SDS011;44884;52.730;6.964;2022-07-09T14:01:42;3.83;;;1.27;;
59099;SDS011;44884;52.730;6.964;2022-07-09T14:04:08;1.27;;;1.15;;
59099;SDS011;44884;52.730;6.964;2022-07-09T14:06:35;5.65;;;1.20;;
59099;SDS011;44884;52.730;6.964;2022-07-09T14:09:02;3.95;;;1.42;;
59099;SDS011;44884;52.730;6.964;2022-07-09T14:11:29;3.42;;;1.30;;
59099;SDS011;44884;52.730;6.964;2022-07-09T14:13:55;3.30;;;1.30;;
59099;SDS011;44884;52.730;6.964;2022-07-09T14:16:22;4.38;;;1.50;;
59099;SDS011;44884;52.730;6.964;2022-07-09T14:18:48;2.45;;;1.30;;
59099;SDS011;44884;52.730;6.964;2022-07-09T14:21:14;2.38;;;1.08;;
59099;SDS011;44884;52.730;6.964;2022-07-09T14:23:40;2.58;;;1.40;;
59099;SDS011;44884;52.730;6.964;2022-07-09T14:26:06;7.05;;;1.55;;
59099;SDS011;44884;52.730;6.964;2022-07-09T14:28:32;3.55;;;1.25;;
59099;SDS011;44884;52.730;6.964;2022-07-09T14:30:58;3.70;;;1.77;;
59099;SDS011;44884;52.730;6.964;2022-07-09T14:33:24;2.95;;;1.20;;
59099;SDS011;44884;52.730;6.964;2022-07-09T14:35:50;1.65;;;1.00;;
59099;SDS011;44884;52.730;6.964;2022-07-09T14:38:16;6.35;;;1.17;;
59099;SDS011;44884;52.730;6.964;2022-07-09T14:40:42;5.25;;;1.70;;
59099;SDS011;44884;52.730;6.964;2022-07-09T14:43:08;3.13;;;1.83;;
59099;SDS011;44884;52.730;6.964;2022-07-09T14:45:34;1.50;;;1.13;;
59099;SDS011;44884;52.730;6.964;2022-07-09T14:48:01;2.33;;;1.10;;
59099;SDS011;44884;52.730;6.964;2022-07-09T14:50:28;3.15;;;1.02;;
59099;SDS011;44884;52.730;6.964;2022-07-09T14:52:54;2.03;;;1.17;;
59099;SDS011;44884;52.730;6.964;2022-07-09T14:55:21;3.38;;;1.45;;
59099;SDS011;44884;52.730;6.964;2022-07-09T14:57:47;2.53;;;1.40;;
59099;SDS011;44884;52.730;6.964;2022-07-09T15:00:13;2.15;;;1.20;;
59099;SDS011;44884;52.730;6.964;2022-07-09T15:02:41;3.92;;;1.42;;
59099;SDS011;44884;52.730;6.964;2022-07-09T15:05:07;2.92;;;1.38;;